SAS696 LOWW-EKCH
Flight info
| Callsign | SAS696 |
|---|---|
| Flight time | 1h 22m |
| Altitude | 36000 |
| Route | LANUX DCT VLM DCT HDO DCT BAKDO DCT KOSEB T298 MONAK |
| Aircraft | CRJ9/M-SDFGIRWY/S |
Departure
| Time | 2026-04-21 17:58 |
|---|---|
| Airport | Vienna International Airport (LOWW) |
Arrival
| Time | 2026-04-21 19:20 |
|---|---|
| Airport | Copenhagen Kastrup Airport (EKCH) |
| Time | Latitude | Longitude | Altitude | Speed | Heading |
|---|---|---|---|---|---|
| 2026-04-21 17:35 | 48.12155 | 16.55527 | 592 ft | 0 kts | 296° |
| 2026-04-21 17:49 | 48.12156 | 16.55523 | 592 ft | 2 kts | 296° |
| 2026-04-21 17:50 | 48.12161 | 16.55507 | 592 ft | 3 kts | 291° |
| 2026-04-21 17:50 | 48.12162 | 16.55473 | 592 ft | 3 kts | 252° |
| 2026-04-21 17:50 | 48.12152 | 16.55454 | 592 ft | 2 kts | 214° |
| 2026-04-21 17:50 | 48.12143 | 16.55446 | 592 ft | 2 kts | 211° |
| 2026-04-21 17:51 | 48.12140 | 16.55443 | 592 ft | 0 kts | 210° |
| 2026-04-21 17:51 | 48.12121 | 16.55428 | 593 ft | 3 kts | 206° |
| 2026-04-21 17:51 | 48.12110 | 16.55420 | 594 ft | 2 kts | 205° |
| 2026-04-21 17:51 | 48.12092 | 16.55407 | 595 ft | 3 kts | 205° |
| 2026-04-21 17:52 | 48.12090 | 16.55405 | 595 ft | 0 kts | 205° |
| 2026-04-21 17:52 | 48.12035 | 16.55366 | 599 ft | 13 kts | 205° |
| 2026-04-21 17:52 | 48.11963 | 16.55317 | 602 ft | 10 kts | 195° |
| 2026-04-21 17:52 | 48.11906 | 16.55390 | 618 ft | 15 kts | 113° |
| 2026-04-21 17:53 | 48.11863 | 16.55554 | 614 ft | 17 kts | 115° |
| 2026-04-21 17:53 | 48.11816 | 16.55701 | 621 ft | 15 kts | 116° |
| 2026-04-21 17:53 | 48.11768 | 16.55844 | 613 ft | 17 kts | 116° |
| 2026-04-21 17:53 | 48.11718 | 16.55998 | 617 ft | 16 kts | 115° |
| 2026-04-21 17:54 | 48.11667 | 16.56157 | 616 ft | 18 kts | 116° |
| 2026-04-21 17:54 | 48.11609 | 16.56334 | 612 ft | 19 kts | 116° |
| 2026-04-21 17:54 | 48.11548 | 16.56517 | 615 ft | 20 kts | 117° |
| 2026-04-21 17:54 | 48.11489 | 16.56702 | 614 ft | 19 kts | 115° |
| 2026-04-21 17:55 | 48.11434 | 16.56870 | 619 ft | 16 kts | 116° |
| 2026-04-21 17:55 | 48.11386 | 16.57018 | 626 ft | 15 kts | 116° |
| 2026-04-21 17:55 | 48.11337 | 16.57166 | 622 ft | 17 kts | 116° |
| 2026-04-21 17:55 | 48.11286 | 16.57323 | 617 ft | 17 kts | 116° |
| 2026-04-21 17:56 | 48.11231 | 16.57489 | 617 ft | 19 kts | 116° |
| 2026-04-21 17:56 | 48.11160 | 16.57596 | 620 ft | 14 kts | 186° |
| 2026-04-21 17:56 | 48.11081 | 16.57535 | 616 ft | 12 kts | 210° |
| 2026-04-21 17:56 | 48.11017 | 16.57486 | 629 ft | 9 kts | 205° |
| 2026-04-21 17:57 | 48.10967 | 16.57428 | 629 ft | 9 kts | 244° |
| 2026-04-21 17:57 | 48.10980 | 16.57332 | 626 ft | 16 kts | 294° |
| 2026-04-21 17:57 | 48.11144 | 16.56828 | 627 ft | 94 kts | 296° |
| 2026-04-21 17:57 | 48.11539 | 16.55629 | 637 ft | 158 kts | 297° |
| 2026-04-21 17:58 | 48.12050 | 16.54021 | 1089 ft | 186 kts | 299° |
| 2026-04-21 17:58 | 48.12532 | 16.52240 | 2181 ft | 188 kts | 284° |
| 2026-04-21 17:58 | 48.12264 | 16.50308 | 3102 ft | 196 kts | 255° |
| 2026-04-21 17:58 | 48.11854 | 16.48363 | 4019 ft | 196 kts | 258° |
| 2026-04-21 17:59 | 48.11680 | 16.46361 | 4845 ft | 194 kts | 280° |
| 2026-04-21 17:59 | 48.11827 | 16.44356 | 5701 ft | 194 kts | 282° |
| 2026-04-21 17:59 | 48.12027 | 16.42356 | 6508 ft | 195 kts | 284° |
| 2026-04-21 17:59 | 48.12257 | 16.40358 | 7254 ft | 195 kts | 284° |
| 2026-04-21 18:00 | 48.12490 | 16.38295 | 7829 ft | 211 kts | 284° |
| 2026-04-21 18:00 | 48.12734 | 16.36136 | 8808 ft | 207 kts | 284° |
| 2026-04-21 18:00 | 48.12965 | 16.33995 | 9690 ft | 209 kts | 283° |
| 2026-04-21 18:00 | 48.13204 | 16.31774 | 10181 ft | 229 kts | 283° |
| 2026-04-21 18:01 | 48.13469 | 16.29303 | 10513 ft | 250 kts | 282° |
| 2026-04-21 18:01 | 48.13748 | 16.26642 | 10948 ft | 267 kts | 282° |
| 2026-04-21 18:01 | 48.14041 | 16.23814 | 11470 ft | 281 kts | 282° |
| 2026-04-21 18:01 | 48.14703 | 16.21075 | 12147 ft | 282 kts | 309° |
| 2026-04-21 18:02 | 48.16179 | 16.19169 | 12912 ft | 284 kts | 328° |
| 2026-04-21 18:02 | 48.17896 | 16.17755 | 13715 ft | 286 kts | 334° |
| 2026-04-21 18:02 | 48.19710 | 16.16477 | 14381 ft | 293 kts | 335° |
| 2026-04-21 18:02 | 48.21567 | 16.15213 | 15115 ft | 293 kts | 335° |
| 2026-04-21 18:03 | 48.23439 | 16.13936 | 15769 ft | 299 kts | 334° |
| 2026-04-21 18:03 | 48.25327 | 16.12592 | 16512 ft | 300 kts | 333° |
| 2026-04-21 18:03 | 48.27212 | 16.11204 | 17233 ft | 303 kts | 333° |
| 2026-04-21 18:03 | 48.29116 | 16.09791 | 17909 ft | 307 kts | 333° |
| 2026-04-21 18:04 | 48.31038 | 16.08363 | 18574 ft | 309 kts | 333° |
| 2026-04-21 18:04 | 48.32979 | 16.06920 | 19152 ft | 312 kts | 333° |
| 2026-04-21 18:04 | 48.34931 | 16.05469 | 19731 ft | 314 kts | 332° |
| 2026-04-21 18:04 | 48.36896 | 16.04006 | 20306 ft | 317 kts | 332° |
| 2026-04-21 18:05 | 48.38852 | 16.02549 | 20855 ft | 319 kts | 332° |
| 2026-04-21 18:05 | 48.40852 | 16.01055 | 21386 ft | 323 kts | 332° |
| 2026-04-21 18:05 | 48.42871 | 15.99544 | 21907 ft | 325 kts | 333° |
| 2026-04-21 18:05 | 48.44906 | 15.98025 | 22436 ft | 328 kts | 332° |
| 2026-04-21 18:06 | 48.46954 | 15.96494 | 22958 ft | 330 kts | 332° |
| 2026-04-21 18:06 | 48.49020 | 15.94948 | 23456 ft | 332 kts | 332° |
| 2026-04-21 18:06 | 48.51104 | 15.93388 | 23912 ft | 335 kts | 332° |
| 2026-04-21 18:06 | 48.53203 | 15.91820 | 24318 ft | 337 kts | 332° |
| 2026-04-21 18:07 | 48.55308 | 15.90242 | 24717 ft | 339 kts | 332° |
| 2026-04-21 18:07 | 48.57376 | 15.88622 | 25104 ft | 341 kts | 330° |
| 2026-04-21 18:07 | 48.59456 | 15.86885 | 25492 ft | 343 kts | 329° |
| 2026-04-21 18:07 | 48.61535 | 15.85096 | 25866 ft | 345 kts | 329° |
| 2026-04-21 18:08 | 48.63632 | 15.83304 | 26242 ft | 347 kts | 329° |
| 2026-04-21 18:08 | 48.65738 | 15.81501 | 26643 ft | 349 kts | 329° |
| 2026-04-21 18:08 | 48.67862 | 15.79668 | 26916 ft | 353 kts | 329° |
| 2026-04-21 18:08 | 48.70008 | 15.77832 | 27276 ft | 355 kts | 329° |
| 2026-04-21 18:09 | 48.72168 | 15.75985 | 27617 ft | 358 kts | 329° |
| 2026-04-21 18:09 | 48.74340 | 15.74123 | 27961 ft | 360 kts | 329° |
| 2026-04-21 18:09 | 48.76522 | 15.72248 | 28300 ft | 362 kts | 329° |
| 2026-04-21 18:09 | 48.78719 | 15.70360 | 28644 ft | 364 kts | 329° |
| 2026-04-21 18:10 | 48.80929 | 15.68456 | 28970 ft | 366 kts | 329° |
| 2026-04-21 18:10 | 48.83152 | 15.66546 | 29290 ft | 368 kts | 329° |
| 2026-04-21 18:10 | 48.85385 | 15.64622 | 29612 ft | 370 kts | 329° |
| 2026-04-21 18:10 | 48.87632 | 15.62683 | 29920 ft | 372 kts | 329° |
| 2026-04-21 18:11 | 48.89918 | 15.60807 | 30207 ft | 374 kts | 332° |
| 2026-04-21 18:11 | 48.92289 | 15.59114 | 30385 ft | 380 kts | 335° |
| 2026-04-21 18:11 | 48.94729 | 15.57547 | 30622 ft | 381 kts | 337° |
| 2026-04-21 18:11 | 48.97185 | 15.56004 | 30859 ft | 383 kts | 337° |
| 2026-04-21 18:12 | 48.99648 | 15.54444 | 31104 ft | 384 kts | 336° |
| 2026-04-21 18:12 | 49.02110 | 15.52831 | 31333 ft | 386 kts | 336° |
| 2026-04-21 18:12 | 49.04581 | 15.51192 | 31560 ft | 387 kts | 336° |
| 2026-04-21 18:12 | 49.07056 | 15.49544 | 31795 ft | 389 kts | 336° |
| 2026-04-21 18:13 | 49.09505 | 15.47914 | 32096 ft | 389 kts | 336° |
| 2026-04-21 18:13 | 49.11983 | 15.46260 | 32369 ft | 389 kts | 336° |
| 2026-04-21 18:13 | 49.14459 | 15.44608 | 32675 ft | 388 kts | 336° |
| 2026-04-21 18:13 | 49.16942 | 15.42944 | 32883 ft | 390 kts | 336° |
| 2026-04-21 18:14 | 49.21846 | 15.39644 | 34051 ft | 372 kts | 336° |
| 2026-04-21 18:14 | 49.24178 | 15.38071 | 34694 ft | 360 kts | 336° |
| 2026-04-21 18:14 | 49.26445 | 15.36555 | 35221 ft | 350 kts | 336° |
| 2026-04-21 18:15 | 49.28645 | 15.35077 | 35699 ft | 341 kts | 336° |
| 2026-04-21 18:15 | 49.30817 | 15.33616 | 35950 ft | 340 kts | 336° |
| 2026-04-21 18:15 | 49.32961 | 15.32171 | 36073 ft | 342 kts | 336° |
| 2026-04-21 18:16 | 49.37385 | 15.29187 | 36179 ft | 352 kts | 336° |
| 2026-04-21 18:16 | 49.41936 | 15.26108 | 36212 ft | 363 kts | 336° |
| 2026-04-21 18:17 | 49.46639 | 15.22931 | 36223 ft | 375 kts | 336° |
| 2026-04-21 18:17 | 49.51497 | 15.19637 | 36233 ft | 387 kts | 336° |
| 2026-04-21 18:18 | 49.56479 | 15.16248 | 36233 ft | 399 kts | 336° |
| 2026-04-21 18:18 | 49.61633 | 15.12735 | 36221 ft | 411 kts | 336° |
| 2026-04-21 18:19 | 49.66920 | 15.09093 | 36223 ft | 422 kts | 336° |
| 2026-04-21 18:19 | 49.72374 | 15.05463 | 36221 ft | 432 kts | 340° |
| 2026-04-21 18:20 | 49.78127 | 15.02351 | 36214 ft | 441 kts | 342° |
| 2026-04-21 18:20 | 49.83967 | 14.99205 | 36212 ft | 445 kts | 341° |
| 2026-04-21 18:21 | 49.89747 | 14.95978 | 36203 ft | 444 kts | 341° |
| 2026-04-21 18:21 | 49.95555 | 14.92714 | 36201 ft | 443 kts | 341° |
| 2026-04-21 18:22 | 50.01341 | 14.89472 | 36201 ft | 442 kts | 341° |
| 2026-04-21 18:22 | 50.07127 | 14.86214 | 36203 ft | 441 kts | 341° |
| 2026-04-21 18:23 | 50.12892 | 14.82962 | 36206 ft | 440 kts | 341° |
| 2026-04-21 18:23 | 50.18649 | 14.79699 | 36199 ft | 440 kts | 341° |
| 2026-04-21 18:24 | 50.24407 | 14.76433 | 36203 ft | 441 kts | 341° |
| 2026-04-21 18:24 | 50.30182 | 14.73148 | 36209 ft | 443 kts | 341° |
| 2026-04-21 18:25 | 50.35985 | 14.69838 | 36216 ft | 444 kts | 341° |
| 2026-04-21 18:25 | 50.41770 | 14.66526 | 36215 ft | 446 kts | 341° |
| 2026-04-21 18:26 | 50.47614 | 14.63179 | 36220 ft | 448 kts | 341° |
| 2026-04-21 18:26 | 50.53477 | 14.59804 | 36227 ft | 449 kts | 341° |
| 2026-04-21 18:27 | 50.59354 | 14.56418 | 36213 ft | 450 kts | 341° |
| 2026-04-21 18:27 | 50.65244 | 14.53012 | 36228 ft | 451 kts | 341° |
| 2026-04-21 18:28 | 50.71147 | 14.49582 | 36239 ft | 452 kts | 342° |
| 2026-04-21 18:28 | 50.77063 | 14.46153 | 36231 ft | 453 kts | 342° |
| 2026-04-21 18:29 | 50.82987 | 14.42706 | 36241 ft | 454 kts | 341° |
| 2026-04-21 18:29 | 50.88894 | 14.39254 | 36250 ft | 455 kts | 342° |
| 2026-04-21 18:30 | 50.94867 | 14.35944 | 36240 ft | 451 kts | 346° |
| 2026-04-21 18:30 | 51.00900 | 14.33516 | 36245 ft | 444 kts | 349° |
| 2026-04-21 18:31 | 51.06866 | 14.31224 | 36223 ft | 439 kts | 348° |
| 2026-04-21 18:31 | 51.12752 | 14.28819 | 36244 ft | 433 kts | 348° |
| 2026-04-21 18:32 | 51.18565 | 14.26423 | 36242 ft | 430 kts | 348° |
| 2026-04-21 18:32 | 51.24309 | 14.23759 | 36250 ft | 430 kts | 346° |
| 2026-04-21 18:33 | 51.30000 | 14.21050 | 36248 ft | 429 kts | 346° |
| 2026-04-21 18:33 | 51.35716 | 14.18325 | 36245 ft | 428 kts | 346° |
| 2026-04-21 18:34 | 51.41422 | 14.15599 | 36247 ft | 427 kts | 346° |
| 2026-04-21 18:34 | 51.47116 | 14.12863 | 36248 ft | 426 kts | 346° |
| 2026-04-21 18:35 | 51.51839 | 14.10598 | 36250 ft | 426 kts | 346° |
| 2026-04-21 18:35 | 51.58463 | 14.07410 | 36251 ft | 425 kts | 346° |
| 2026-04-21 18:36 | 51.63162 | 14.05137 | 36252 ft | 424 kts | 346° |
| 2026-04-21 18:36 | 51.68816 | 14.02402 | 36249 ft | 423 kts | 346° |
| 2026-04-21 18:37 | 51.74463 | 13.99659 | 36255 ft | 423 kts | 346° |
| 2026-04-21 18:37 | 51.80092 | 13.96924 | 36254 ft | 422 kts | 346° |
| 2026-04-21 18:38 | 51.85713 | 13.94181 | 36256 ft | 422 kts | 346° |
| 2026-04-21 18:38 | 51.91329 | 13.91435 | 36257 ft | 421 kts | 346° |
| 2026-04-21 18:39 | 51.96908 | 13.88692 | 36257 ft | 422 kts | 346° |
| 2026-04-21 18:39 | 52.02573 | 13.85910 | 36264 ft | 429 kts | 346° |
| 2026-04-21 18:40 | 52.08344 | 13.83059 | 36271 ft | 436 kts | 346° |
| 2026-04-21 18:40 | 52.14187 | 13.80113 | 36272 ft | 442 kts | 346° |
| 2026-04-21 18:41 | 52.20107 | 13.77161 | 36273 ft | 448 kts | 346° |
| 2026-04-21 18:41 | 52.26102 | 13.74198 | 36273 ft | 453 kts | 346° |
| 2026-04-21 18:42 | 52.32158 | 13.71176 | 36271 ft | 457 kts | 346° |
| 2026-04-21 18:42 | 52.38214 | 13.68143 | 36267 ft | 459 kts | 346° |
| 2026-04-21 18:43 | 52.44313 | 13.65086 | 36263 ft | 458 kts | 346° |
| 2026-04-21 18:43 | 52.50394 | 13.62024 | 36263 ft | 456 kts | 346° |
| 2026-04-21 18:44 | 52.56461 | 13.58967 | 36257 ft | 455 kts | 346° |
| 2026-04-21 18:44 | 52.62515 | 13.55906 | 36276 ft | 455 kts | 346° |
| 2026-04-21 18:45 | 52.68553 | 13.52844 | 36291 ft | 454 kts | 346° |
| 2026-04-21 18:45 | 52.74591 | 13.49771 | 36297 ft | 454 kts | 346° |
| 2026-04-21 18:46 | 52.80625 | 13.46691 | 36299 ft | 454 kts | 346° |
| 2026-04-21 18:46 | 52.86621 | 13.43623 | 36306 ft | 453 kts | 346° |
| 2026-04-21 18:47 | 52.92654 | 13.40527 | 36305 ft | 453 kts | 346° |
| 2026-04-21 18:47 | 52.98679 | 13.37426 | 36305 ft | 453 kts | 346° |
| 2026-04-21 18:48 | 53.04689 | 13.34320 | 36306 ft | 451 kts | 346° |
| 2026-04-21 18:48 | 53.10664 | 13.31227 | 36305 ft | 447 kts | 346° |
| 2026-04-21 18:49 | 53.16593 | 13.28152 | 36317 ft | 445 kts | 346° |
| 2026-04-21 18:49 | 53.21497 | 13.25598 | 36316 ft | 443 kts | 346° |
| 2026-04-21 18:50 | 53.28319 | 13.22033 | 36320 ft | 440 kts | 346° |
| 2026-04-21 18:50 | 53.34156 | 13.18978 | 36325 ft | 438 kts | 346° |
| 2026-04-21 18:51 | 53.39973 | 13.15923 | 36327 ft | 437 kts | 346° |
| 2026-04-21 18:51 | 53.45760 | 13.12876 | 36331 ft | 435 kts | 346° |
| 2026-04-21 18:52 | 53.51530 | 13.09827 | 36338 ft | 434 kts | 346° |
| 2026-04-21 18:52 | 53.57282 | 13.06777 | 36333 ft | 433 kts | 346° |
| 2026-04-21 18:53 | 53.62978 | 13.03755 | 36333 ft | 431 kts | 346° |
| 2026-04-21 18:53 | 53.65846 | 13.02230 | 35986 ft | 435 kts | 346° |
| 2026-04-21 18:53 | 53.68740 | 13.00680 | 35463 ft | 436 kts | 347° |
| 2026-04-21 18:53 | 53.71636 | 12.99124 | 34940 ft | 437 kts | 347° |
| 2026-04-21 18:54 | 53.74526 | 12.97573 | 34435 ft | 434 kts | 347° |
| 2026-04-21 18:54 | 53.77392 | 12.96035 | 33839 ft | 431 kts | 348° |
| 2026-04-21 18:54 | 53.80243 | 12.94509 | 33214 ft | 428 kts | 348° |
| 2026-04-21 18:54 | 53.83078 | 12.92989 | 32626 ft | 427 kts | 348° |
| 2026-04-21 18:55 | 53.84956 | 12.91984 | 32242 ft | 427 kts | 349° |
| 2026-04-21 18:55 | 53.88748 | 12.89946 | 31491 ft | 427 kts | 349° |
| 2026-04-21 18:55 | 53.91585 | 12.88415 | 30939 ft | 427 kts | 349° |
| 2026-04-21 18:55 | 53.94414 | 12.86887 | 30392 ft | 427 kts | 349° |
| 2026-04-21 18:56 | 53.97245 | 12.85360 | 29770 ft | 427 kts | 349° |
| 2026-04-21 18:56 | 54.00070 | 12.83841 | 29146 ft | 427 kts | 349° |
| 2026-04-21 18:56 | 54.02903 | 12.82309 | 28533 ft | 427 kts | 349° |
| 2026-04-21 18:56 | 54.05732 | 12.80776 | 27935 ft | 428 kts | 349° |
| 2026-04-21 18:57 | 54.08571 | 12.79228 | 27329 ft | 429 kts | 349° |
| 2026-04-21 18:57 | 54.11426 | 12.77758 | 26751 ft | 425 kts | 354° |
| 2026-04-21 18:57 | 54.14327 | 12.77394 | 26166 ft | 415 kts | 7° |
| 2026-04-21 18:57 | 54.17216 | 12.77535 | 25624 ft | 416 kts | 7° |
| 2026-04-21 18:58 | 54.20121 | 12.77543 | 25089 ft | 420 kts | 4° |
| 2026-04-21 18:58 | 54.23008 | 12.77267 | 24567 ft | 423 kts | 1° |
| 2026-04-21 18:58 | 54.25952 | 12.76852 | 24047 ft | 425 kts | 1° |
| 2026-04-21 18:58 | 54.28901 | 12.76438 | 23453 ft | 426 kts | 1° |
| 2026-04-21 18:59 | 54.31854 | 12.76050 | 22845 ft | 426 kts | 1° |
| 2026-04-21 18:59 | 54.34821 | 12.75696 | 22232 ft | 427 kts | 1° |
| 2026-04-21 18:59 | 54.37786 | 12.75359 | 21647 ft | 427 kts | 1° |
| 2026-04-21 18:59 | 54.40755 | 12.75019 | 21073 ft | 427 kts | 1° |
| 2026-04-21 19:00 | 54.43687 | 12.74666 | 20668 ft | 411 kts | 0° |
| 2026-04-21 19:00 | 54.46452 | 12.74311 | 20488 ft | 388 kts | 1° |
| 2026-04-21 19:00 | 54.49116 | 12.73981 | 20406 ft | 379 kts | 1° |
| 2026-04-21 19:00 | 54.51757 | 12.73674 | 20369 ft | 381 kts | 1° |
| 2026-04-21 19:01 | 54.54427 | 12.73369 | 20013 ft | 383 kts | 1° |
| 2026-04-21 19:01 | 54.57061 | 12.73060 | 19637 ft | 377 kts | 1° |
| 2026-04-21 19:01 | 54.59629 | 12.72748 | 19261 ft | 372 kts | 0° |
| 2026-04-21 19:01 | 54.62191 | 12.72439 | 18892 ft | 368 kts | 0° |
| 2026-04-21 19:02 | 54.64739 | 12.72128 | 18508 ft | 365 kts | 0° |
| 2026-04-21 19:02 | 54.67259 | 12.71822 | 18095 ft | 362 kts | 0° |
| 2026-04-21 19:02 | 54.69762 | 12.71515 | 17692 ft | 359 kts | 0° |
| 2026-04-21 19:02 | 54.72252 | 12.71215 | 17278 ft | 357 kts | 0° |
| 2026-04-21 19:03 | 54.74727 | 12.70914 | 16878 ft | 355 kts | 0° |
| 2026-04-21 19:03 | 54.77192 | 12.70617 | 16486 ft | 354 kts | 0° |
| 2026-04-21 19:03 | 54.79642 | 12.70318 | 16100 ft | 352 kts | 360° |
| 2026-04-21 19:03 | 54.82087 | 12.70021 | 15718 ft | 351 kts | 360° |
| 2026-04-21 19:04 | 54.84521 | 12.69723 | 15342 ft | 350 kts | 360° |
| 2026-04-21 19:04 | 54.86947 | 12.69429 | 14959 ft | 348 kts | 360° |
| 2026-04-21 19:04 | 54.89364 | 12.69136 | 14589 ft | 347 kts | 359° |
| 2026-04-21 19:04 | 54.91768 | 12.68855 | 14222 ft | 345 kts | 1° |
| 2026-04-21 19:05 | 54.94073 | 12.69406 | 13818 ft | 337 kts | 20° |
| 2026-04-21 19:05 | 54.96314 | 12.70705 | 13415 ft | 334 kts | 21° |
| 2026-04-21 19:05 | 54.98519 | 12.71976 | 13020 ft | 333 kts | 20° |
| 2026-04-21 19:05 | 55.00715 | 12.73083 | 12634 ft | 332 kts | 17° |
| 2026-04-21 19:06 | 55.02965 | 12.74046 | 12241 ft | 331 kts | 15° |
| 2026-04-21 19:06 | 55.05205 | 12.74942 | 11856 ft | 329 kts | 15° |
| 2026-04-21 19:06 | 55.07429 | 12.75859 | 11478 ft | 327 kts | 15° |
| 2026-04-21 19:06 | 55.09636 | 12.76776 | 11101 ft | 325 kts | 16° |
| 2026-04-21 19:07 | 55.11835 | 12.77692 | 10727 ft | 323 kts | 15° |
| 2026-04-21 19:07 | 55.14018 | 12.78605 | 10361 ft | 321 kts | 15° |
| 2026-04-21 19:07 | 55.16185 | 12.79516 | 9967 ft | 319 kts | 15° |
| 2026-04-21 19:07 | 55.18335 | 12.80418 | 9563 ft | 316 kts | 15° |
| 2026-04-21 19:08 | 55.20467 | 12.81309 | 9162 ft | 314 kts | 15° |
| 2026-04-21 19:08 | 55.22585 | 12.82200 | 8766 ft | 312 kts | 15° |
| 2026-04-21 19:08 | 55.24658 | 12.83077 | 8382 ft | 309 kts | 15° |
| 2026-04-21 19:08 | 55.26741 | 12.83953 | 7998 ft | 306 kts | 15° |
| 2026-04-21 19:09 | 55.28806 | 12.84821 | 7617 ft | 304 kts | 15° |
| 2026-04-21 19:09 | 55.30857 | 12.85689 | 7240 ft | 301 kts | 15° |
| 2026-04-21 19:09 | 55.32883 | 12.86548 | 6867 ft | 298 kts | 15° |
| 2026-04-21 19:09 | 55.34893 | 12.87398 | 6478 ft | 295 kts | 15° |
| 2026-04-21 19:10 | 55.36882 | 12.88238 | 6083 ft | 292 kts | 15° |
| 2026-04-21 19:10 | 55.38849 | 12.89073 | 5693 ft | 289 kts | 14° |
| 2026-04-21 19:10 | 55.40793 | 12.89899 | 5312 ft | 286 kts | 14° |
| 2026-04-21 19:10 | 55.42718 | 12.90717 | 4918 ft | 283 kts | 14° |
| 2026-04-21 19:11 | 55.44637 | 12.91275 | 4522 ft | 275 kts | 7° |
| 2026-04-21 19:11 | 55.46505 | 12.91624 | 4125 ft | 265 kts | 6° |
| 2026-04-21 19:11 | 55.48311 | 12.91932 | 3731 ft | 257 kts | 5° |
| 2026-04-21 19:11 | 55.50068 | 12.92239 | 3339 ft | 250 kts | 5° |
| 2026-04-21 19:12 | 55.51201 | 12.92442 | 3177 ft | 243 kts | 5° |
| 2026-04-21 19:12 | 55.53364 | 12.92850 | 3031 ft | 224 kts | 5° |
| 2026-04-21 19:12 | 55.54878 | 12.93148 | 3018 ft | 216 kts | 5° |
| 2026-04-21 19:12 | 55.56342 | 12.93436 | 3067 ft | 214 kts | 5° |
| 2026-04-21 19:13 | 55.57819 | 12.93725 | 3052 ft | 212 kts | 5° |
| 2026-04-21 19:13 | 55.59286 | 12.94014 | 3035 ft | 211 kts | 5° |
| 2026-04-21 19:13 | 55.60743 | 12.94304 | 3013 ft | 209 kts | 6° |
| 2026-04-21 19:13 | 55.62185 | 12.94575 | 3049 ft | 206 kts | 5° |
| 2026-04-21 19:14 | 55.63609 | 12.94835 | 3043 ft | 203 kts | 5° |
| 2026-04-21 19:14 | 55.65033 | 12.95090 | 3029 ft | 208 kts | 5° |
| 2026-04-21 19:14 | 55.66488 | 12.95354 | 3011 ft | 212 kts | 5° |
| 2026-04-21 19:14 | 55.67959 | 12.95563 | 3002 ft | 213 kts | 360° |
| 2026-04-21 19:15 | 55.69300 | 12.94712 | 2887 ft | 203 kts | 323° |
| 2026-04-21 19:15 | 55.70179 | 12.92829 | 2866 ft | 193 kts | 308° |
| 2026-04-21 19:15 | 55.70948 | 12.90904 | 2585 ft | 195 kts | 306° |
| 2026-04-21 19:15 | 55.71679 | 12.88931 | 2236 ft | 187 kts | 301° |
| 2026-04-21 19:16 | 55.71840 | 12.86702 | 2049 ft | 185 kts | 261° |
| 2026-04-21 19:16 | 55.71518 | 12.84570 | 2019 ft | 178 kts | 257° |
| 2026-04-21 19:16 | 55.71170 | 12.82571 | 1995 ft | 168 kts | 256° |
| 2026-04-21 19:16 | 55.70800 | 12.80611 | 1982 ft | 167 kts | 253° |
| 2026-04-21 19:17 | 55.69354 | 12.77491 | 1898 ft | 163 kts | 229° |
| 2026-04-21 19:17 | 55.68558 | 12.76007 | 1564 ft | 162 kts | 230° |
| 2026-04-21 19:17 | 55.67816 | 12.74637 | 1269 ft | 146 kts | 230° |
| 2026-04-21 19:18 | 55.67037 | 12.73522 | 988 ft | 147 kts | 217° |
| 2026-04-21 19:18 | 55.66192 | 12.72569 | 855 ft | 137 kts | 218° |
| 2026-04-21 19:18 | 55.65479 | 12.71520 | 552 ft | 131 kts | 223° |
| 2026-04-21 19:18 | 55.64823 | 12.70401 | 389 ft | 129 kts | 222° |
| 2026-04-21 19:19 | 55.64159 | 12.69365 | 310 ft | 125 kts | 221° |
| 2026-04-21 19:19 | 55.63505 | 12.68306 | 220 ft | 130 kts | 221° |
| 2026-04-21 19:19 | 55.62817 | 12.67209 | 142 ft | 137 kts | 221° |
| 2026-04-21 19:19 | 55.62132 | 12.66126 | 19 ft | 124 kts | 220° |
| 2026-04-21 19:20 | 55.61585 | 12.65278 | 14 ft | 77 kts | 220° |
| 2026-04-21 19:20 | 55.61346 | 12.64891 | 16 ft | 31 kts | 231° |
| 2026-04-21 19:20 | 55.61241 | 12.64563 | 15 ft | 31 kts | 253° |
| 2026-04-21 19:20 | 55.61192 | 12.64310 | 16 ft | 15 kts | 255° |
| 2026-04-21 19:21 | 55.61193 | 12.64163 | 17 ft | 11 kts | 298° |
| 2026-04-21 19:21 | 55.61257 | 12.64108 | 15 ft | 11 kts | 2° |
| 2026-04-21 19:21 | 55.61327 | 12.64169 | 15 ft | 12 kts | 31° |
| 2026-04-21 19:21 | 55.61405 | 12.64254 | 16 ft | 14 kts | 32° |
| 2026-04-21 19:22 | 55.61491 | 12.64354 | 17 ft | 15 kts | 34° |
| 2026-04-21 19:22 | 55.61585 | 12.64464 | 17 ft | 17 kts | 33° |
| 2026-04-21 19:22 | 55.61690 | 12.64584 | 16 ft | 18 kts | 32° |
| 2026-04-21 19:22 | 55.61800 | 12.64710 | 17 ft | 20 kts | 34° |
| 2026-04-21 19:23 | 55.61918 | 12.64844 | 15 ft | 21 kts | 33° |
| 2026-04-21 19:23 | 55.62013 | 12.64954 | 16 ft | 13 kts | 33° |
| 2026-04-21 19:23 | 55.62064 | 12.65011 | 16 ft | 14 kts | 33° |
| 2026-04-21 19:23 | 55.62150 | 12.65109 | 17 ft | 16 kts | 33° |
| 2026-04-21 19:24 | 55.62252 | 12.65195 | 15 ft | 17 kts | 4° |
| 2026-04-21 19:24 | 55.62416 | 12.65203 | 15 ft | 18 kts | 359° |
| 2026-04-21 19:24 | 55.62503 | 12.65198 | 15 ft | 18 kts | 358° |
| 2026-04-21 19:24 | 55.62619 | 12.65198 | 15 ft | 14 kts | 18° |
| 2026-04-21 19:25 | 55.62652 | 12.65311 | 15 ft | 10 kts | 87° |
| 2026-04-21 19:25 | 55.62686 | 12.65380 | 15 ft | 8 kts | 27° |
| 2026-04-21 19:25 | 55.62699 | 12.65391 | 16 ft | 1 kts | 23° |
| 2026-04-21 19:25 | 55.62702 | 12.65393 | 16 ft | 0 kts | 24° |